Time;durP1;ratioP1;P1;durP2;ratioP2;P2;SDS_P1;SDS_P2;PMS_P1;PMS_P2;Temp;Humidity;BMP_temperature;BMP_pressure;BME280_temperature;BME280_humidity;BME280_pressure;Samples;Min_cycle;Max_cycle;Signal;HPM_P1;HPM_P2
2022/05/14 00:00:17;;;;;;;8.47;7.87;;;;;;;23.40;38.70;94990.75;6133080;28;104200;-57
2022/05/14 00:03:18;;;;;;;8.73;8.03;;;;;;;23.40;39.11;94991.53;6135874;28;104042;-57
2022/05/14 00:06:22;;;;;;;8.17;7.67;;;;;;;23.38;39.19;94987.63;6136035;28;103208;-56
2022/05/14 00:09:24;;;;;;;8.00;7.30;;;;;;;23.39;39.16;94981.16;6126641;28;103985;-57
2022/05/14 00:15:46;;;;;;;7.90;7.33;;;;;;;23.37;38.74;94980.69;6138172;28;104363;-57
2022/05/14 00:18:51;;;;;;;7.37;6.77;;;;;;;23.38;38.86;94982.28;6137191;28;103073;-57
2022/05/14 00:21:53;;;;;;;7.50;6.90;;;;;;;23.35;38.75;94972.97;6123070;28;104176;-57
2022/05/14 00:24:55;;;;;;;7.33;6.83;;;;;;;23.37;38.95;94975.38;6136646;28;103279;-59
2022/05/14 00:27:57;;;;;;;6.83;6.23;;;;;;;23.35;38.88;94974.88;6135947;28;103511;-57
2022/05/14 00:30:59;;;;;;;7.17;6.57;;;;;;;23.34;39.07;94976.75;6130837;28;103475;-56
2022/05/14 00:34:01;;;;;;;7.43;6.83;;;;;;;23.34;39.03;94973.28;6130361;28;103203;-57
2022/05/14 00:37:03;;;;;;;7.30;6.80;;;;;;;23.35;39.32;94977.53;6151430;28;103361;-56
2022/05/14 00:40:11;;;;;;;7.27;6.70;;;;;;;23.35;38.53;94972.97;6137003;28;103968;-57
2022/05/14 00:43:13;;;;;;;6.57;6.00;;;;;;;23.36;38.55;94960.44;6125428;28;104042;-56
2022/05/14 00:46:25;;;;;;;6.90;6.47;;;;;;;23.37;38.62;94970.03;6136971;28;102809;-56
2022/05/14 00:49:29;;;;;;;6.60;6.03;;;;;;;23.32;38.98;94976.28;6136596;28;104142;-57
2022/05/14 00:52:31;;;;;;;7.53;6.83;;;;;;;23.31;38.86;94966.72;6135382;28;103525;-57
2022/05/14 00:55:34;;;;;;;6.80;6.30;;;;;;;23.29;38.92;94972.38;6126783;28;104051;-57
2022/05/14 00:58:44;;;;;;;6.17;5.77;;;;;;;23.32;38.82;94978.16;6136768;28;103245;-57
2022/05/14 01:01:48;;;;;;;6.27;5.87;;;;;;;23.30;38.78;94976.59;6132718;28;104566;-56
2022/05/14 01:04:50;;;;;;;6.73;6.33;;;;;;;23.29;38.97;94976.91;6132688;28;104000;-57
2022/05/14 01:07:54;;;;;;;6.40;5.90;;;;;;;23.26;39.11;94975.63;6129807;28;102992;-57
2022/05/14 01:10:57;;;;;;;7.03;6.53;;;;;;;23.27;39.04;94971.09;6115523;28;103407;-57
2022/05/14 01:13:59;;;;;;;5.83;5.50;;;;;;;23.27;39.22;94976.41;6136571;28;104521;-57
2022/05/14 01:17:01;;;;;;;6.40;6.00;;;;;;;23.28;39.15;94973.44;6125103;28;103952;-58
2022/05/14 01:20:04;;;;;;;6.40;5.93;;;;;;;23.28;38.67;94978.00;6135519;28;104283;-56
2022/05/14 01:23:13;;;;;;;6.70;6.20;;;;;;;23.29;38.81;94974.25;6134621;28;103246;-57
2022/05/14 01:26:27;;;;;;;6.33;5.93;;;;;;;23.24;38.66;94961.81;6136160;28;103210;-57
2022/05/14 01:29:29;;;;;;;6.77;6.20;;;;;;;23.25;38.77;94966.06;6118962;28;103954;-56
2022/05/14 01:32:31;;;;;;;6.23;5.83;;;;;;;23.23;38.95;94970.94;6136223;28;103844;-57
2022/05/14 01:35:36;;;;;;;6.73;6.20;;;;;;;23.24;39.09;94975.16;6134253;28;104331;-56
2022/05/14 01:38:37;;;;;;;5.90;5.60;;;;;;;23.23;39.17;94962.94;6134320;28;104096;-56
2022/05/14 01:41:40;;;;;;;6.30;5.80;;;;;;;23.25;38.51;94967.94;6125540;28;104493;-56
2022/05/14 01:44:43;;;;;;;6.20;5.70;;;;;;;23.25;38.90;94962.59;6135998;28;104078;-56
2022/05/14 01:47:45;;;;;;;6.43;6.03;;;;;;;23.23;38.92;94959.47;6132014;28;103203;-57
2022/05/14 01:50:46;;;;;;;6.27;5.77;;;;;;;23.21;38.80;94954.44;6125888;28;105390;-57
2022/05/14 01:53:48;;;;;;;6.00;5.60;;;;;;;23.19;39.17;94942.50;6133754;28;104306;-56
2022/05/14 01:56:50;;;;;;;6.60;6.10;;;;;;;23.20;38.89;94950.22;6134593;28;103548;-57
2022/05/14 01:59:51;;;;;;;6.30;5.80;;;;;;;23.18;39.30;94949.72;6134581;28;102972;-58
2022/05/14 02:02:53;;;;;;;6.30;5.90;;;;;;;23.19;38.86;94953.97;6123135;28;104502;-58
2022/05/14 02:05:55;;;;;;;7.07;6.37;;;;;;;23.21;38.98;94954.44;6136422;28;103470;-58
2022/05/14 02:08:58;;;;;;;6.07;5.67;;;;;;;23.19;38.86;94951.31;6134038;28;103274;-58
2022/05/14 02:12:01;;;;;;;6.90;6.30;;;;;;;23.19;38.66;94953.97;6135276;28;104107;-58
2022/05/14 02:15:04;;;;;;;6.50;6.00;;;;;;;23.21;39.30;94953.66;6125576;28;103444;-58
2022/05/14 02:18:06;;;;;;;6.47;5.70;;;;;;;23.18;39.00;94949.72;6131622;28;103359;-59
2022/05/14 02:21:09;;;;;;;6.73;6.17;;;;;;;23.19;38.94;94945.97;6134894;28;103235;-58
2022/05/14 02:24:11;;;;;;;6.10;5.70;;;;;;;23.17;38.80;94944.69;6129467;28;105018;-58
2022/05/14 02:27:12;;;;;;;6.20;5.77;;;;;;;23.18;38.78;94943.59;6128019;28;104105;-58
2022/05/14 02:30:14;;;;;;;6.40;5.90;;;;;;;23.17;38.53;94952.69;6133307;28;104616;-58
2022/05/14 02:33:16;;;;;;;6.43;5.83;;;;;;;23.18;38.66;94951.59;6135290;28;103231;-58
2022/05/14 02:36:18;;;;;;;6.70;6.20;;;;;;;23.17;38.79;94947.34;6124793;28;104056;-59
2022/05/14 02:39:20;;;;;;;6.33;5.83;;;;;;;23.16;38.70;94946.56;6132943;28;104287;-58
2022/05/14 02:42:22;;;;;;;6.40;5.80;;;;;;;23.17;39.10;94942.81;6134846;28;103237;-58
2022/05/14 02:45:24;;;;;;;5.90;5.50;;;;;;;23.16;38.84;94948.47;6136325;28;102704;-59
2022/05/14 02:48:26;;;;;;;5.90;5.50;;;;;;;23.15;39.06;94947.69;6126964;28;104432;-58
2022/05/14 02:51:27;;;;;;;5.80;5.40;;;;;;;23.17;38.82;94956.16;6139759;28;103201;-58
2022/05/14 02:54:29;;;;;;;6.27;5.83;;;;;;;23.14;39.26;94959.47;6138027;28;104303;-58
2022/05/14 02:57:31;;;;;;;6.43;5.80;;;;;;;23.12;39.07;94953.66;6137196;28;104852;-58
2022/05/14 03:00:32;;;;;;;5.80;5.30;;;;;;;23.11;39.17;94952.06;6128959;28;103183;-58
2022/05/14 03:03:34;;;;;;;6.70;6.20;;;;;;;23.14;39.10;94958.66;6137026;28;104322;-58
2022/05/14 03:06:36;;;;;;;6.13;5.73;;;;;;;23.13;39.24;94960.56;6138461;28;104094;-58
2022/05/14 03:09:39;;;;;;;5.70;5.40;;;;;;;23.13;38.94;94959.78;6131680;28;104628;-58
2022/05/14 03:12:41;;;;;;;6.40;5.90;;;;;;;23.12;39.12;94958.19;6133386;28;103246;-58
2022/05/14 03:15:43;;;;;;;6.93;6.33;;;;;;;23.11;39.01;94946.75;6138715;28;103473;-58
2022/05/14 03:18:45;;;;;;;6.77;6.27;;;;;;;23.10;39.27;94955.84;6137914;28;104590;-58
2022/05/14 03:21:47;;;;;;;6.27;5.87;;;;;;;23.13;39.10;94960.56;6127940;28;103484;-58
2022/05/14 03:24:49;;;;;;;6.70;6.20;;;;;;;23.13;38.56;94968.56;6135929;28;104209;-58
2022/05/14 03:27:51;;;;;;;7.33;6.73;;;;;;;23.10;39.19;94960.41;6137199;28;104157;-58
2022/05/14 03:30:53;;;;;;;6.90;6.40;;;;;;;23.11;39.20;94954.75;6134334;28;102764;-58
2022/05/14 03:33:55;;;;;;;7.13;6.47;;;;;;;23.12;39.11;94964.31;6127835;28;103468;-58
2022/05/14 03:36:57;;;;;;;7.17;6.57;;;;;;;23.10;38.92;94971.09;6136378;28;103399;-58
2022/05/14 03:39:59;;;;;;;7.20;6.60;;;;;;;23.13;38.97;94970.44;6134121;28;104262;-58
2022/05/14 03:43:00;;;;;;;6.70;6.30;;;;;;;23.12;38.75;94972.34;6136753;28;103980;-58
2022/05/14 03:46:02;;;;;;;6.67;6.27;;;;;;;23.08;39.10;94974.06;6126718;28;104306;-59
2022/05/14 03:49:05;;;;;;;7.33;6.73;;;;;;;23.06;39.44;94975.47;6137295;28;103988;-57
2022/05/14 03:52:08;;;;;;;7.07;6.47;;;;;;;22.95;38.86;94983.00;6135343;28;103265;-58
2022/05/14 03:55:11;;;;;;;7.50;7.00;;;;;;;22.81;39.40;94980.47;6128989;28;103079;-56
2022/05/14 03:58:13;;;;;;;8.77;7.10;;;;;;;22.87;39.19;94983.78;6132005;28;103281;-56
2022/05/14 04:01:15;;;;;;;7.60;7.00;;;;;;;22.85;39.38;94980.63;6137031;28;103208;-57
2022/05/14 04:04:17;;;;;;;7.50;6.80;;;;;;;22.83;39.19;94982.81;6137708;28;103179;-57
2022/05/14 04:07:19;;;;;;;7.70;7.03;;;;;;;22.83;39.25;94978.25;6128081;28;103059;-56
2022/05/14 04:10:21;;;;;;;7.93;7.17;;;;;;;22.70;39.91;94980.00;6134417;28;103362;-57
2022/05/14 04:13:23;;;;;;;8.37;7.57;;;;;;;22.47;39.78;94986.47;6135749;28;103163;-57
2022/05/14 04:16:25;;;;;;;8.40;7.80;;;;;;;22.34;40.44;94993.47;6137340;28;103089;-57
2022/05/14 04:19:27;;;;;;;9.23;8.43;;;;;;;22.22;40.69;94995.97;6127556;28;104095;-56
2022/05/14 04:22:30;;;;;;;11.43;8.10;;;;;;;22.20;40.77;94992.81;6136546;28;103760;-56
2022/05/14 04:25:31;;;;;;;10.10;8.87;;;;;;;22.25;40.77;94995.34;6128916;28;103342;-56
2022/05/14 04:28:33;;;;;;;9.93;8.93;;;;;;;22.32;40.79;95005.53;6131994;28;103173;-56
2022/05/14 04:31:36;;;;;;;9.63;8.40;;;;;;;22.38;40.77;95010.44;6127141;28;103899;-56
2022/05/14 04:34:38;;;;;;;9.77;8.90;;;;;;;22.49;40.03;95016.28;6136194;28;104031;-57
2022/05/14 04:37:40;;;;;;;9.43;8.30;;;;;;;22.55;40.52;95012.41;6136680;28;102771;-58
2022/05/14 04:40:41;;;;;;;12.37;9.30;;;;;;;22.58;39.99;95009.13;6131490;28;104134;-57
2022/05/14 04:43:43;;;;;;;10.10;9.10;;;;;;;22.62;40.05;95012.75;6127379;28;104148;-56
2022/05/14 04:46:45;;;;;;;9.43;8.60;;;;;;;22.65;40.16;95017.47;6135656;28;103539;-56
2022/05/14 04:49:48;;;;;;;10.70;9.70;;;;;;;22.70;40.24;95022.66;6136320;28;104207;-56
2022/05/14 04:52:50;;;;;;;16.97;12.53;;;;;;;22.73;40.22;95021.25;6123727;28;103344;-57
2022/05/14 04:55:51;;;;;;;28.00;25.40;;;;;;;22.66;40.70;95027.03;6130502;28;104170;-56
2022/05/14 04:58:53;;;;;;;16.77;12.60;;;;;;;22.49;40.67;95031.50;6136484;28;103481;-56
2022/05/14 05:05:20;;;;;;;18.10;16.20;;;;;;;22.50;40.94;95028.50;6126891;28;104027;-57
2022/05/14 05:08:23;;;;;;;20.80;18.10;;;;;;;22.36;41.55;95030.53;6136093;28;103022;-57
2022/05/14 05:11:25;;;;;;;15.50;13.80;;;;;;;21.43;43.24;95033.81;6136719;28;104087;-57
2022/05/14 05:14:27;;;;;;;13.70;12.40;;;;;;;21.15;44.20;95032.31;6131884;28;103036;-57
2022/05/14 05:17:29;;;;;;;19.57;17.63;;;;;;;21.54;43.22;95034.38;6131717;28;104057;-57
2022/05/14 05:20:30;;;;;;;13.10;11.90;;;;;;;21.24;43.79;95035.88;6136832;28;103215;-57
2022/05/14 05:23:33;;;;;;;15.23;13.83;;;;;;;21.14;44.00;95042.19;6136829;28;103311;-57
2022/05/14 05:26:36;;;;;;;16.80;13.50;;;;;;;21.67;43.07;95038.06;6126278;28;103351;-60
2022/05/14 05:29:38;;;;;;;15.07;11.60;;;;;;;21.93;42.94;95041.72;6136152;28;102969;-58
2022/05/14 05:32:40;;;;;;;11.90;10.80;;;;;;;22.09;42.45;95040.25;6137004;28;103295;-56
2022/05/14 05:35:42;;;;;;;12.97;10.77;;;;;;;22.21;41.80;95037.03;6136906;28;102952;-57
2022/05/14 05:38:44;;;;;;;12.03;10.83;;;;;;;22.31;41.68;95050.06;6126610;28;105724;-57
2022/05/14 05:41:46;;;;;;;13.60;10.50;;;;;;;22.39;41.31;95054.69;6136488;28;103063;-57
2022/05/14 05:44:48;;;;;;;12.97;10.90;;;;;;;22.44;41.49;95056.41;6136407;28;103322;-57
2022/05/14 05:47:49;;;;;;;11.70;10.63;;;;;;;22.47;41.11;95058.47;6136552;28;103271;-56
2022/05/14 05:50:51;;;;;;;12.30;11.10;;;;;;;22.52;41.24;95055.69;6126426;28;103185;-57
2022/05/14 05:57:13;;;;;;;12.27;11.00;;;;;;;22.61;41.22;95061.84;6135962;28;104188;-57
2022/05/14 06:00:19;;;;;;;11.50;10.60;;;;;;;22.63;41.21;95065.00;6130369;28;103611;-57
2022/05/14 06:03:21;;;;;;;10.73;9.73;;;;;;;22.63;41.12;95070.31;6133229;28;103239;-57
2022/05/14 06:06:23;;;;;;;12.80;10.00;;;;;;;22.66;40.84;95069.72;6129984;28;103337;-56
2022/05/14 06:09:26;;;;;;;11.10;10.10;;;;;;;22.70;40.61;95072.56;6135864;28;103417;-56
2022/05/14 06:12:28;;;;;;;10.47;9.37;;;;;;;22.67;40.80;95065.94;6116889;28;103038;-57
2022/05/14 06:15:30;;;;;;;8.50;7.70;;;;;;;22.66;40.79;95083.03;6128883;28;103863;-56
2022/05/14 06:18:32;;;;;;;10.77;8.83;;;;;;;22.66;40.57;95077.72;6135229;28;102965;-56
2022/05/14 06:21:36;;;;;;;9.37;8.50;;;;;;;22.70;40.77;95086.69;6126856;28;104185;-59
2022/05/14 06:24:38;;;;;;;10.37;9.53;;;;;;;22.79;41.17;95077.91;6123293;28;104401;-61
2022/05/14 06:27:40;;;;;;;12.23;11.07;;;;;;;22.84;41.49;95083.09;6132192;28;104258;-64
2022/05/14 06:30:43;;;;;;;9.97;9.07;;;;;;;22.85;41.59;95080.16;6132135;28;103593;-59
2022/05/14 06:33:48;;;;;;;10.07;9.17;;;;;;;22.91;41.94;95081.56;6126948;28;104057;-59
2022/05/14 06:36:51;;;;;;;9.40;8.60;;;;;;;22.83;42.08;95079.66;6126366;28;104176;-59
2022/05/14 06:39:53;;;;;;;8.60;7.90;;;;;;;22.93;41.82;95079.38;6132936;28;103155;-59
2022/05/14 06:42:55;;;;;;;10.00;9.10;;;;;;;22.98;41.55;95078.44;6139729;28;104351;-59
2022/05/14 06:45:56;;;;;;;10.23;9.10;;;;;;;23.13;42.07;95074.56;6129876;28;102992;-60
2022/05/14 06:48:58;;;;;;;10.83;8.20;;;;;;;23.15;41.80;95075.81;6139458;28;103539;-59
2022/05/14 06:52:03;;;;;;;10.90;8.57;;;;;;;22.94;42.38;95082.84;6138775;28;103527;-59
2022/05/14 06:55:06;;;;;;;10.40;8.60;;;;;;;22.89;42.88;95089.09;6134969;28;104263;-59
2022/05/14 06:58:13;;;;;;;9.50;8.60;;;;;;;22.93;43.25;95089.28;6124727;28;104876;-55
2022/05/14 07:01:17;;;;;;;15.40;7.63;;;;;;;23.29;41.85;95087.19;6136724;28;103746;-58
2022/05/14 07:07:40;;;;;;;11.00;7.40;;;;;;;23.53;42.27;95080.63;6135625;28;103290;-56
2022/05/14 07:10:42;;;;;;;10.30;9.30;;;;;;;23.53;42.36;95088.63;6124089;28;103034;-57
2022/05/14 07:13:44;;;;;;;11.90;9.70;;;;;;;23.39;42.48;95096.78;6131868;28;103578;-57
2022/05/14 07:16:49;;;;;;;12.50;9.83;;;;;;;23.09;42.50;95087.75;6131012;28;104240;-57
2022/05/14 07:19:51;;;;;;;9.83;8.77;;;;;;;23.20;42.70;95093.59;6117154;28;103294;-57
2022/05/14 07:22:53;;;;;;;8.50;7.90;;;;;;;23.43;42.30;95094.28;6130472;28;103805;-57
2022/05/14 07:26:01;;;;;;;9.90;8.97;;;;;;;23.47;42.44;95103.22;6131765;28;103171;-57
2022/05/14 07:29:09;;;;;;;8.10;7.40;;;;;;;23.74;41.62;95100.25;6129040;28;103155;-57
2022/05/14 07:32:16;;;;;;;12.70;8.93;;;;;;;23.76;42.47;95095.38;6113667;28;104203;-57
2022/05/14 07:35:17;;;;;;;8.83;8.03;;;;;;;23.97;41.90;95095.53;6126033;28;103292;-58
2022/05/14 07:38:20;;;;;;;8.90;7.97;;;;;;;24.13;41.66;95099.31;6123034;28;103287;-59
2022/05/14 07:41:22;;;;;;;8.97;8.30;;;;;;;24.19;41.76;95097.25;6142596;28;104103;-58
2022/05/14 07:44:28;;;;;;;9.00;8.20;;;;;;;24.28;42.05;95105.28;6119128;28;104050;-58
2022/05/14 07:47:31;;;;;;;9.77;8.77;;;;;;;24.35;41.70;95101.00;6132625;28;103284;-59
2022/05/14 07:50:34;;;;;;;8.57;7.73;;;;;;;24.41;41.86;95109.66;6129453;28;103195;-57
2022/05/14 07:53:37;;;;;;;10.07;9.10;;;;;;;24.45;41.70;95113.25;6123418;28;103570;-56
2022/05/14 07:56:39;;;;;;;15.87;10.07;;;;;;;24.44;41.66;95109.00;6114042;28;105003;-57
2022/05/14 07:59:41;;;;;;;16.90;9.80;;;;;;;24.43;41.97;95113.56;6131013;28;104326;-57
2022/05/14 08:02:45;;;;;;;13.73;9.23;;;;;;;24.47;41.69;95108.38;6130439;28;103212;-58
2022/05/14 08:05:47;;;;;;;15.20;9.00;;;;;;;24.47;42.12;95098.44;6120655;28;103156;-57
2022/05/14 08:08:51;;;;;;;11.97;8.87;;;;;;;24.50;42.19;95105.03;6129120;28;103278;-57
2022/05/14 08:11:53;;;;;;;13.83;9.30;;;;;;;24.54;42.36;95095.28;6129137;28;103203;-57
2022/05/14 08:14:55;;;;;;;13.00;10.90;;;;;;;24.57;42.08;95091.97;6126655;28;103417;-57
2022/05/14 08:17:57;;;;;;;10.37;9.20;;;;;;;24.69;42.15;95094.00;6114449;28;103322;-58
2022/05/14 08:24:30;;;;;;;10.30;9.20;;;;;;;24.73;42.02;95092.25;6130790;28;104308;-56
2022/05/14 08:24:30;;;;;;;12.17;10.30;;;;;;;24.78;42.18;95090.19;6135412;28;103143;-56
2022/05/14 08:27:31;;;;;;;12.07;10.80;;;;;;;24.84;42.12;95082.75;6133158;28;104329;-57
2022/05/14 08:30:34;;;;;;;12.13;10.23;;;;;;;24.86;42.17;95077.84;6129359;28;104943;-57
2022/05/14 08:33:36;;;;;;;11.27;10.27;;;;;;;24.92;42.39;95084.63;6135804;28;103323;-57
2022/05/14 08:36:38;;;;;;;10.47;9.47;;;;;;;24.91;42.08;95083.06;6134974;28;102957;-63
2022/05/14 08:39:40;;;;;;;13.13;10.67;;;;;;;24.88;42.34;95081.03;6122323;28;105164;-57
2022/05/14 08:42:42;;;;;;;13.37;10.27;;;;;;;24.88;42.37;95086.38;6132236;28;104192;-57
2022/05/14 08:45:44;;;;;;;16.33;11.50;;;;;;;24.74;43.71;95080.44;6132150;28;103273;-57
2022/05/14 08:48:51;;;;;;;18.23;11.80;;;;;;;24.58;44.47;95087.41;6129873;28;103863;-57
2022/05/14 08:51:56;;;;;;;12.40;11.37;;;;;;;24.57;45.86;95078.59;6123829;28;103866;-57
2022/05/14 08:55:01;;;;;;;11.90;10.90;;;;;;;24.64;46.16;95076.19;6131565;28;103109;-57
2022/05/14 08:58:31;;;;;;;12.57;11.47;;;;;;;24.67;45.16;95064.84;6117987;28;103200;-57
2022/05/14 09:01:39;;;;;;;12.67;11.40;;;;;;;24.68;44.70;95065.66;6124515;28;104296;-57
2022/05/14 09:04:40;;;;;;;13.13;11.10;;;;;;;24.68;44.36;95062.97;6130863;28;105846;-57
2022/05/14 09:07:43;;;;;;;13.77;11.93;;;;;;;24.70;44.00;95068.81;6136410;28;104531;-57
2022/05/14 09:10:55;;;;;;;16.30;13.43;;;;;;;24.74;44.08;95072.41;6135500;28;104120;-56
2022/05/14 09:14:00;;;;;;;14.70;12.70;;;;;;;24.77;44.68;95075.22;6126448;28;103255;-57
2022/05/14 09:17:20;;;;;;;13.27;11.70;;;;;;;24.79;44.91;95082.94;6135455;28;103103;-57
2022/05/14 09:20:25;;;;;;;14.17;12.67;;;;;;;24.79;45.48;95082.94;6121451;28;103114;-57
2022/05/14 09:23:37;;;;;;;13.80;12.40;;;;;;;24.73;45.08;95079.66;6134124;28;104039;-57
2022/05/14 09:26:41;;;;;;;15.53;12.87;;;;;;;24.72;44.57;95086.13;6125497;28;103095;-57
2022/05/14 09:29:45;;;;;;;14.67;13.27;;;;;;;24.74;45.15;95069.75;6135983;28;104195;-56
2022/05/14 09:32:47;;;;;;;14.70;13.47;;;;;;;24.72;45.08;95066.59;6135097;28;103529;-56
2022/05/14 09:36:00;;;;;;;16.00;14.40;;;;;;;24.74;45.49;95059.81;6130664;28;104100;-56
2022/05/14 09:39:16;;;;;;;15.03;13.53;;;;;;;24.78;45.76;95059.97;6135526;28;102979;-57
2022/05/14 09:42:29;;;;;;;15.03;13.63;;;;;;;24.77;45.83;95055.72;6122175;28;104160;-57
2022/05/14 09:45:36;;;;;;;16.00;14.73;;;;;;;24.79;45.80;95056.97;6131875;28;102999;-57
2022/05/14 09:48:47;;;;;;;15.57;14.27;;;;;;;24.81;46.02;95053.16;6125097;28;103073;-57
2022/05/14 09:52:00;;;;;;;15.77;14.30;;;;;;;24.85;46.00;95046.84;6136038;28;104003;-56
2022/05/14 09:55:08;;;;;;;19.37;13.90;;;;;;;24.87;46.02;95039.31;6135831;28;103030;-57
2022/05/14 09:58:25;;;;;;;14.23;13.10;;;;;;;24.83;45.83;95046.38;6132059;28;104101;-56
2022/05/14 10:01:46;;;;;;;14.73;13.53;;;;;;;24.81;46.01;95053.16;6131302;28;104316;-55
2022/05/14 10:05:14;;;;;;;13.73;12.33;;;;;;;24.79;46.01;95072.22;6134561;28;104029;-56
2022/05/14 10:08:35;;;;;;;13.67;12.57;;;;;;;24.74;45.80;95083.13;6135580;28;103032;-55
2022/05/14 10:12:07;;;;;;;19.30;12.53;;;;;;;24.67;46.85;95093.50;6126610;28;103323;-55
2022/05/14 10:15:29;;;;;;;14.27;12.53;;;;;;;24.64;47.28;95100.28;6135638;28;102984;-56
2022/05/14 10:18:34;;;;;;;13.70;12.30;;;;;;;24.62;47.63;95099.03;6136560;28;104007;-55
2022/05/14 10:22:13;;;;;;;14.13;12.73;;;;;;;24.60;47.57;95107.38;6126581;28;103598;-55
2022/05/14 10:28:49;;;;;;;12.47;11.37;;;;;;;24.53;47.58;95106.28;6136438;28;103173;-55
2022/05/14 10:32:02;;;;;;;12.43;11.27;;;;;;;24.47;47.65;95109.16;6135953;28;104139;-55
2022/05/14 10:35:24;;;;;;;12.33;11.10;;;;;;;24.48;47.51;95109.94;6129395;28;103106;-56
2022/05/14 10:38:41;;;;;;;12.17;11.13;;;;;;;24.47;47.64;95113.72;6134853;28;104319;-55
2022/05/14 10:41:47;;;;;;;13.10;11.90;;;;;;;24.45;47.36;95105.22;6135898;28;102910;-56
2022/05/14 10:44:59;;;;;;;11.80;10.73;;;;;;;24.45;48.00;95108.69;6125490;28;103177;-56
2022/05/14 10:48:04;;;;;;;11.57;10.67;;;;;;;24.43;48.07;95097.53;6135905;28;103065;-55
2022/05/14 10:51:09;;;;;;;11.73;10.53;;;;;;;24.45;48.17;95097.97;6135311;28;104239;-55
2022/05/14 10:54:17;;;;;;;12.27;11.07;;;;;;;24.46;48.12;95096.88;6136232;28;104148;-55
2022/05/14 10:57:19;;;;;;;12.00;10.90;;;;;;;24.46;48.26;95096.09;6125320;28;104256;-56
2022/05/14 11:00:36;;;;;;;12.10;11.10;;;;;;;24.44;48.75;95079.59;6136171;28;103798;-56
2022/05/14 11:03:41;;;;;;;12.23;11.03;;;;;;;24.43;48.50;95073.44;6136191;28;103316;-56
2022/05/14 11:07:06;;;;;;;12.43;11.40;;;;;;;24.43;48.38;95072.66;6129972;28;103290;-55
2022/05/14 11:10:34;;;;;;;11.80;10.80;;;;;;;24.44;48.49;95069.66;6138526;28;103077;-56
2022/05/14 11:13:36;;;;;;;11.70;10.50;;;;;;;24.45;48.36;95070.44;6139502;28;104189;-56
2022/05/14 11:16:43;;;;;;;11.47;10.67;;;;;;;24.45;48.35;95057.84;6139445;28;104055;-56
2022/05/14 11:19:46;;;;;;;10.83;9.93;;;;;;;24.44;48.51;95066.22;6129280;28;103061;-55
2022/05/14 11:22:51;;;;;;;10.90;10.00;;;;;;;24.44;48.23;95063.53;6139173;28;103445;-56
2022/05/14 11:26:09;;;;;;;10.70;9.80;;;;;;;24.44;48.15;95060.84;6139279;28;103165;-56
2022/05/14 11:29:17;;;;;;;11.83;10.87;;;;;;;24.45;48.48;95073.91;6133521;28;102876;-56
2022/05/14 11:32:25;;;;;;;11.33;10.53;;;;;;;24.45;48.44;95073.13;6133749;28;103291;-56
2022/05/14 11:35:43;;;;;;;10.47;9.57;;;;;;;24.43;48.10;95065.41;6138557;28;104132;-55
2022/05/14 11:38:51;;;;;;;9.90;9.20;;;;;;;24.43;47.92;95070.78;6137554;28;103331;-56
2022/05/14 11:42:05;;;;;;;10.50;9.60;;;;;;;24.44;47.56;95074.22;6128512;28;103895;-56
2022/05/14 11:45:19;;;;;;;10.83;9.87;;;;;;;24.42;47.76;95069.19;6138697;28;103213;-55
2022/05/14 11:48:28;;;;;;;10.90;9.90;;;;;;;24.42;47.33;95063.06;6138346;28;103001;-56
2022/05/14 11:52:10;;;;;;;11.33;10.33;;;;;;;24.41;47.07;95051.59;6136745;28;104032;-55
2022/05/14 11:55:25;;;;;;;10.37;9.47;;;;;;;24.41;47.04;95048.91;6135637;28;104298;-56
2022/05/14 11:58:39;;;;;;;10.20;9.40;;;;;;;24.40;47.21;95047.34;6137668;28;103300;-57
2022/05/14 12:01:45;;;;;;;10.00;9.20;;;;;;;24.43;46.88;95051.25;6138493;28;103147;-57
2022/05/14 12:04:52;;;;;;;9.83;8.93;;;;;;;24.43;47.08;95057.41;6128057;28;104048;-56
2022/05/14 12:08:23;;;;;;;10.63;9.63;;;;;;;24.45;46.94;95047.16;6138286;28;104299;-56
2022/05/14 12:11:31;;;;;;;10.20;9.23;;;;;;;24.46;47.01;95045.25;6138425;28;104192;-56
2022/05/14 12:14:35;;;;;;;9.50;8.80;;;;;;;24.45;46.72;95063.22;6132141;28;104239;-56
2022/05/14 12:17:37;;;;;;;10.43;9.73;;;;;;;24.45;46.74;95047.16;6147428;28;103152;-57
2022/05/14 12:20:40;;;;;;;10.30;9.37;;;;;;;24.44;46.97;95050.94;6136816;28;102986;-57
2022/05/14 12:23:46;;;;;;;9.70;8.90;;;;;;;24.44;46.85;95042.13;6138068;28;104086;-57
2022/05/14 12:26:48;;;;;;;9.53;8.80;;;;;;;24.46;46.88;95042.59;6127598;28;103953;-56
2022/05/14 12:29:58;;;;;;;9.40;8.70;;;;;;;24.44;46.53;95037.56;6136519;28;103156;-56
2022/05/14 12:33:12;;;;;;;10.47;9.57;;;;;;;24.44;46.62;95044.81;6138454;28;104007;-56
2022/05/14 12:36:14;;;;;;;9.00;8.40;;;;;;;24.44;46.64;95032.22;6137609;28;103173;-56
2022/05/14 12:39:19;;;;;;;9.20;8.43;;;;;;;24.44;46.54;95024.19;6127297;28;102927;-56
2022/05/14 12:42:30;;;;;;;8.97;8.27;;;;;;;24.44;46.45;95040.25;6137456;28;104278;-56
2022/05/14 12:45:39;;;;;;;9.27;8.50;;;;;;;24.46;45.97;95048.72;6137062;28;104096;-56
2022/05/14 12:48:49;;;;;;;9.53;8.83;;;;;;;24.44;46.19;95047.47;6133041;28;103534;-56
2022/05/14 12:51:57;;;;;;;8.90;8.17;;;;;;;24.47;45.95;95039.59;6130414;28;103271;-55
2022/05/14 12:55:04;;;;;;;7.97;7.40;;;;;;;24.47;45.98;95033.47;6137671;28;104055;-55
2022/05/14 12:58:07;;;;;;;8.67;8.07;;;;;;;24.47;45.75;95028.09;6137427;28;104086;-55
2022/05/14 13:01:10;;;;;;;7.70;7.20;;;;;;;24.46;45.82;95035.34;6126761;28;103571;-55
2022/05/14 13:04:13;;;;;;;8.37;7.77;;;;;;;24.46;45.54;95016.63;6137157;28;103048;-54
2022/05/14 13:07:15;;;;;;;8.23;7.63;;;;;;;24.47;45.44;95022.75;6137515;28;103553;-55
2022/05/14 13:10:22;;;;;;;8.13;7.63;;;;;;;24.46;45.69;95018.50;6137090;28;104154;-55
2022/05/14 13:13:38;;;;;;;8.33;7.53;;;;;;;24.44;45.75;95024.19;6126495;28;104167;-55
2022/05/14 13:16:40;;;;;;;8.33;7.73;;;;;;;24.43;45.62;95021.84;6136864;28;103124;-55
2022/05/14 13:19:48;;;;;;;8.43;7.73;;;;;;;24.43;45.71;95021.84;6136817;28;103136;-55
2022/05/14 13:22:49;;;;;;;9.20;8.30;;;;;;;24.45;45.89;95041.03;6131978;28;102831;-55
2022/05/14 13:26:07;;;;;;;9.63;8.83;;;;;;;24.41;45.57;95046.22;6131840;28;104343;-54
2022/05/14 13:29:21;;;;;;;10.33;9.60;;;;;;;24.41;45.42;95051.59;6135789;28;104062;-56
2022/05/14 13:32:23;;;;;;;12.27;11.27;;;;;;;24.40;45.43;95060.72;6136123;28;103124;-55
2022/05/14 13:39:03;;;;;;;12.57;11.67;;;;;;;24.40;45.30;95065.28;6137017;28;103189;-55
2022/05/14 13:42:10;;;;;;;14.53;13.23;;;;;;;24.37;43.97;95071.28;6135980;28;103104;-59
2022/05/14 13:45:34;;;;;;;12.20;11.40;;;;;;;24.33;44.13;95065.75;6132199;28;104345;-55
2022/05/14 13:48:36;;;;;;;11.47;10.57;;;;;;;24.32;43.82;95076.78;6130680;28;104262;-55
2022/05/14 13:51:49;;;;;;;11.10;10.20;;;;;;;24.26;43.77;95076.16;6135790;28;103077;-54
2022/05/14 13:55:07;;;;;;;10.47;9.20;;;;;;;24.34;43.74;95056.63;6131681;28;104112;-59
2022/05/14 13:58:17;;;;;;;9.87;8.93;;;;;;;24.46;44.02;95051.41;6114827;28;103634;-59
2022/05/14 14:01:39;;;;;;;11.73;10.73;;;;;;;24.52;43.82;95045.88;6129128;28;104128;-58
2022/05/14 14:04:42;;;;;;;12.17;11.23;;;;;;;24.55;43.67;95047.91;6127172;28;103766;-59
2022/05/14 14:07:46;;;;;;;12.10;11.20;;;;;;;24.55;43.86;95054.06;6126993;28;104204;-59
2022/05/14 14:10:52;;;;;;;11.80;10.80;;;;;;;24.57;44.05;95054.50;6121328;28;105987;-59
2022/05/14 14:13:53;;;;;;;11.00;10.00;;;;;;;24.58;43.94;95052.63;6129400;28;103394;-60
2022/05/14 14:16:55;;;;;;;9.87;8.93;;;;;;;24.58;43.92;95047.28;6126743;28;104215;-63
2022/05/14 14:19:57;;;;;;;10.60;9.70;;;;;;;24.59;44.17;95038.91;6117289;28;103156;-60
2022/05/14 14:23:01;;;;;;;10.53;9.73;;;;;;;24.60;44.32;95029.78;6129033;28;103062;-59
2022/05/14 14:26:04;;;;;;;9.70;8.80;;;;;;;24.62;44.36;95032.13;6125937;28;103193;-57
2022/05/14 14:29:06;;;;;;;9.80;8.90;;;;;;;24.60;44.57;95039.72;6127530;28;103467;-59
2022/05/14 14:32:08;;;;;;;9.27;8.57;;;;;;;24.60;44.24;95040.50;6119675;28;103227;-59
2022/05/14 14:35:16;;;;;;;8.80;8.10;;;;;;;24.54;44.12;95043.69;6126190;28;103464;-57